Time;durP1;ratioP1;P1;durP2;ratioP2;P2;SDS_P1;SDS_P2;PMS_P1;PMS_P2;Temp;Humidity;BMP_temperature;BMP_pressure;BME280_temperature;BME280_humidity;BME280_pressure;Samples;Min_cycle;Max_cycle;Signal;HPM_P1;HPM_P2
2023/01/22 00:01:26;;;;;;;25.20;17.60;;;;;;;-1.22;100.00;97093.79;109307;1263;22557;-80
2023/01/22 00:03:57;;;;;;;27.80;17.60;;;;;;;-1.21;100.00;97098.55;109233;1264;22550;-80
2023/01/22 00:06:28;;;;;;;25.10;15.70;;;;;;;-1.21;100.00;97099.03;109329;1264;22544;-80
2023/01/22 00:09:02;;;;;;;26.60;16.70;;;;;;;-1.21;100.00;97096.47;109266;1271;22557;-80
2023/01/22 00:11:33;;;;;;;22.00;15.20;;;;;;;-1.21;100.00;97095.39;109375;1270;24206;-81
2023/01/22 00:14:04;;;;;;;26.50;17.90;;;;;;;-1.21;100.00;97098.31;109356;1270;24266;-81
2023/01/22 00:16:35;;;;;;;22.60;15.20;;;;;;;-1.22;100.00;97102.08;109402;1271;22605;-81
2023/01/22 00:19:06;;;;;;;25.10;15.10;;;;;;;-1.22;100.00;97104.63;109330;1266;23302;-81
2023/01/22 00:21:37;;;;;;;21.10;14.90;;;;;;;-1.22;100.00;97107.30;109411;1263;22538;-81
2023/01/22 00:24:09;;;;;;;22.40;14.40;;;;;;;-1.23;100.00;97105.11;109315;1270;22532;-81
2023/01/22 00:26:40;;;;;;;20.30;13.20;;;;;;;-1.23;100.00;97113.39;109385;1270;25394;-81
2023/01/22 00:29:12;;;;;;;20.70;13.30;;;;;;;-1.25;100.00;97113.18;109279;1271;22590;-81
2023/01/22 00:31:43;;;;;;;20.40;13.80;;;;;;;-1.26;100.00;97109.73;109367;1267;23868;-81
2023/01/22 00:34:14;;;;;;;22.60;14.20;;;;;;;-1.26;100.00;97111.89;109368;1271;22530;-81
2023/01/22 00:36:45;;;;;;;21.70;13.20;;;;;;;-1.28;100.00;97110.98;109374;1266;22601;-81
2023/01/22 00:39:19;;;;;;;20.40;13.00;;;;;;;-1.28;100.00;97116.77;109419;1263;22529;-81
2023/01/22 00:41:50;;;;;;;17.70;12.80;;;;;;;-1.30;100.00;97112.52;109333;1271;22612;-80
2023/01/22 00:44:21;;;;;;;21.90;13.70;;;;;;;-1.31;100.00;97113.45;109404;1270;24457;-81
2023/01/22 00:46:52;;;;;;;18.00;12.70;;;;;;;-1.32;100.00;97115.64;109347;1271;22527;-80
2023/01/22 00:49:23;;;;;;;21.50;13.70;;;;;;;-1.32;100.00;97118.64;109387;1269;22529;-80
2023/01/22 00:51:54;;;;;;;18.50;12.50;;;;;;;-1.32;100.00;97117.73;109336;1269;22530;-80
2023/01/22 00:54:25;;;;;;;21.60;13.90;;;;;;;-1.32;100.00;97120.20;109399;1270;22527;-80
2023/01/22 00:56:58;;;;;;;19.60;13.50;;;;;;;-1.33;100.00;97119.23;109380;1267;24371;-79
2023/01/22 00:59:29;;;;;;;20.80;13.90;;;;;;;-1.33;100.00;97123.96;109331;1270;24268;-80
2023/01/22 01:02:00;;;;;;;21.40;13.90;;;;;;;-1.32;100.00;97133.21;109422;1263;22714;-80
2023/01/22 01:04:31;;;;;;;19.60;13.10;;;;;;;-1.32;100.00;97136.02;109337;1271;22521;-80
2023/01/22 01:07:02;;;;;;;20.10;12.60;;;;;;;-1.32;100.00;97138.28;109335;1270;22538;-80
2023/01/22 01:09:34;;;;;;;20.40;13.80;;;;;;;-1.32;100.00;97140.85;109403;1270;22546;-80
2023/01/22 01:12:07;;;;;;;19.00;12.70;;;;;;;-1.32;100.00;97143.58;109335;1271;23201;-80
2023/01/22 01:14:38;;;;;;;18.10;12.50;;;;;;;-1.32;100.00;97149.38;109265;1259;23188;-80
2023/01/22 01:17:09;;;;;;;20.10;13.80;;;;;;;-1.33;100.00;97156.09;109289;1271;22544;-80
2023/01/22 01:19:40;;;;;;;20.10;13.80;;;;;;;-1.33;100.00;97165.81;109358;1266;24240;-80
2023/01/22 01:22:11;;;;;;;20.50;13.50;;;;;;;-1.34;100.00;97168.77;109409;1270;24150;-80
2023/01/22 01:24:42;;;;;;;17.60;12.60;;;;;;;-1.34;100.00;97166.73;109391;1270;23890;-81
2023/01/22 01:27:13;;;;;;;19.80;13.30;;;;;;;-1.35;100.00;97176.60;109378;1268;22524;-80
2023/01/22 01:29:44;;;;;;;19.60;13.20;;;;;;;-1.36;100.00;97173.23;109292;1271;22543;-80
2023/01/22 01:32:15;;;;;;;16.70;12.20;;;;;;;-1.36;100.00;97170.11;109285;1263;22543;-80
2023/01/22 01:34:48;;;;;;;18.00;12.20;;;;;;;-1.37;100.00;97169.67;109336;1271;22637;-80
2023/01/22 01:37:19;;;;;;;17.10;11.00;;;;;;;-1.37;100.00;97171.08;109380;1267;30954;-80
2023/01/22 01:39:51;;;;;;;18.30;11.40;;;;;;;-1.37;100.00;97168.35;109415;1270;22570;-80
2023/01/22 01:42:30;;;;;;;15.70;10.80;;;;;;;-1.37;100.00;97164.39;109341;1248;22586;-81
2023/01/22 01:45:26;;;;;;;16.90;11.00;;;;;;;-1.38;100.00;97161.39;109337;1270;22569;-81
2023/01/22 01:48:05;;;;;;;15.00;10.10;;;;;;;-1.39;100.00;97162.30;109337;1266;22526;-82
2023/01/22 01:50:38;;;;;;;16.40;10.90;;;;;;;-1.39;100.00;97158.38;109376;1270;22594;-80
2023/01/22 01:53:10;;;;;;;14.70;9.80;;;;;;;-1.39;100.00;97162.90;109294;1259;22521;-81
2023/01/22 01:55:41;;;;;;;14.70;9.90;;;;;;;-1.40;100.00;97166.00;109408;1263;22533;-81
2023/01/22 01:58:20;;;;;;;14.60;9.40;;;;;;;-1.40;100.00;97166.45;109387;1270;23301;-80
2023/01/22 02:00:55;;;;;;;16.60;10.90;;;;;;;-1.41;100.00;97159.18;109392;1264;22606;-80
2023/01/22 02:03:28;;;;;;;16.20;10.80;;;;;;;-1.42;100.00;97156.29;109320;1264;25577;-80
2023/01/22 02:06:00;;;;;;;15.40;10.20;;;;;;;-1.42;100.00;97158.93;109344;1266;22550;-80
2023/01/22 02:08:32;;;;;;;16.10;10.90;;;;;;;-1.42;100.00;97150.61;109323;1271;23151;-80
2023/01/22 02:11:04;;;;;;;17.80;11.10;;;;;;;-1.44;100.00;97152.52;109315;1263;25335;-80
2023/01/22 02:13:39;;;;;;;17.40;11.30;;;;;;;-1.44;100.00;97163.45;109292;1271;24244;-81
2023/01/22 02:16:11;;;;;;;17.40;10.90;;;;;;;-1.44;100.00;97158.67;109321;1263;22511;-81
2023/01/22 02:18:42;;;;;;;17.30;11.40;;;;;;;-1.45;100.00;97160.59;109308;1269;23013;-81
2023/01/22 02:21:39;;;;;;;16.60;11.10;;;;;;;-1.44;100.00;97154.80;109320;1265;22524;-81
2023/01/22 02:24:13;;;;;;;15.90;10.80;;;;;;;-1.44;100.00;97155.36;109488;1263;22538;-81
2023/01/22 02:26:45;;;;;;;15.70;10.00;;;;;;;-1.48;100.00;97162.27;109381;1263;22559;-81
2023/01/22 02:29:16;;;;;;;18.00;10.90;;;;;;;-1.53;100.00;97161.28;109355;1264;22609;-81
2023/01/22 02:31:49;;;;;;;15.80;10.90;;;;;;;-1.54;100.00;97158.67;109387;1264;22532;-81
2023/01/22 02:34:23;;;;;;;17.50;11.50;;;;;;;-1.55;100.00;97154.08;109326;1264;23305;-81
2023/01/22 02:36:55;;;;;;;17.10;11.30;;;;;;;-1.56;100.00;97154.46;109340;1263;22524;-81
2023/01/22 02:39:26;;;;;;;16.00;11.50;;;;;;;-1.56;100.00;97152.98;109325;1263;23263;-81
2023/01/22 02:41:57;;;;;;;15.50;11.50;;;;;;;-1.56;100.00;97153.15;109371;1263;22577;-81
2023/01/22 02:44:30;;;;;;;17.80;11.50;;;;;;;-1.56;100.00;97151.78;109347;1264;23809;-81
2023/01/22 02:47:04;;;;;;;18.40;11.90;;;;;;;-1.56;100.00;97152.30;109180;1263;25159;-81
2023/01/22 02:49:35;;;;;;;21.60;13.50;;;;;;;-1.57;100.00;97146.83;109358;1271;22532;-81
2023/01/22 02:52:06;;;;;;;17.00;11.60;;;;;;;-1.58;100.00;97146.21;109299;1271;22552;-81
2023/01/22 02:54:39;;;;;;;16.70;11.30;;;;;;;-1.57;100.00;97153.82;109324;1264;25491;-81
2023/01/22 02:57:13;;;;;;;18.70;12.10;;;;;;;-1.58;100.00;97169.14;109308;1267;23639;-81
2023/01/22 02:59:45;;;;;;;17.90;11.50;;;;;;;-1.59;100.00;97177.24;109402;1265;23151;-81
2023/01/22 03:02:18;;;;;;;18.70;12.60;;;;;;;-1.60;100.00;97174.48;109332;1272;22556;-81
2023/01/22 03:04:49;;;;;;;17.80;11.80;;;;;;;-1.62;100.00;97171.43;109343;1267;22673;-81
2023/01/22 03:07:21;;;;;;;21.00;13.40;;;;;;;-1.63;100.00;97166.22;109313;1266;23294;-81
2023/01/22 03:09:52;;;;;;;21.90;15.20;;;;;;;-1.66;100.00;97168.28;109365;1266;22567;-81
2023/01/22 03:12:23;;;;;;;25.00;14.50;;;;;;;-1.68;100.00;97168.47;109373;1267;22529;-81
2023/01/22 03:23:31;;;;;;;22.90;14.90;;;;;;;-1.72;100.00;97166.94;109332;1263;24210;-81
2023/01/22 03:26:06;;;;;;;23.00;15.90;;;;;;;-1.73;100.00;97166.44;109350;1271;22525;-81
2023/01/22 03:28:38;;;;;;;24.70;16.00;;;;;;;-1.74;100.00;97168.52;109465;1264;22541;-81
2023/01/22 03:31:11;;;;;;;25.80;17.20;;;;;;;-1.72;100.00;97167.85;109368;1264;26436;-81
2023/01/22 03:33:44;;;;;;;22.80;15.80;;;;;;;-1.71;100.00;97163.70;109363;1264;22527;-80
2023/01/22 03:36:17;;;;;;;25.80;16.50;;;;;;;-1.70;100.00;97159.35;109451;1268;22518;-80
2023/01/22 03:38:50;;;;;;;23.40;16.40;;;;;;;-1.70;100.00;97160.30;109398;1268;22578;-80
2023/01/22 03:41:21;;;;;;;25.30;16.60;;;;;;;-1.70;100.00;97160.98;109354;1264;22585;-80
2023/01/22 03:43:52;;;;;;;25.90;17.00;;;;;;;-1.70;100.00;97167.75;109339;1264;22532;-80
2023/01/22 03:46:25;;;;;;;24.70;17.10;;;;;;;-1.70;100.00;97167.18;109343;1264;25223;-80
2023/01/22 03:48:56;;;;;;;24.70;16.40;;;;;;;-1.70;100.00;97166.11;109371;1263;22635;-80
2023/01/22 03:51:27;;;;;;;27.40;18.60;;;;;;;-1.69;100.00;97166.73;109353;1266;22559;-80
2023/01/22 03:54:00;;;;;;;25.10;17.70;;;;;;;-1.69;100.00;97170.69;109406;1264;22524;-80
2023/01/22 03:56:32;;;;;;;26.60;18.90;;;;;;;-1.68;100.00;97176.31;109332;1263;22539;-80
2023/01/22 03:59:03;;;;;;;27.70;18.90;;;;;;;-1.68;100.00;97176.50;109295;1259;26631;-80
2023/01/22 04:01:36;;;;;;;27.40;18.90;;;;;;;-1.69;100.00;97176.62;109298;1264;22540;-80
2023/01/22 04:04:10;;;;;;;28.80;19.20;;;;;;;-1.68;100.00;97178.75;109340;1266;22527;-80
2023/01/22 04:06:41;;;;;;;28.40;19.20;;;;;;;-1.68;100.00;97176.98;109323;1263;22525;-81
2023/01/22 04:09:12;;;;;;;28.80;19.10;;;;;;;-1.68;100.00;97176.51;109323;1266;22513;-81
2023/01/22 04:11:43;;;;;;;27.20;18.80;;;;;;;-1.68;100.00;97173.59;109306;1268;22601;-80
2023/01/22 04:14:13;;;;;;;29.10;19.90;;;;;;;-1.68;100.00;97172.55;109323;1263;22518;-81
2023/01/22 04:16:44;;;;;;;30.70;20.10;;;;;;;-1.67;100.00;97175.52;109299;1270;22525;-80
2023/01/22 04:19:15;;;;;;;30.80;20.20;;;;;;;-1.66;100.00;97177.84;109325;1264;22843;-80
2023/01/22 04:21:47;;;;;;;29.00;19.60;;;;;;;-1.65;100.00;97180.88;109339;1270;24244;-81
2023/01/22 04:24:18;;;;;;;30.00;20.80;;;;;;;-1.65;100.00;97178.45;109401;1270;22514;-81
2023/01/22 04:26:51;;;;;;;28.30;20.10;;;;;;;-1.65;100.00;97180.33;109348;1270;22518;-80
2023/01/22 04:29:22;;;;;;;32.20;21.90;;;;;;;-1.65;100.00;97171.13;109393;1270;22561;-80
2023/01/22 04:31:55;;;;;;;29.00;19.60;;;;;;;-1.65;100.00;97169.89;109363;1263;22519;-80
2023/01/22 04:34:27;;;;;;;29.60;19.80;;;;;;;-1.65;100.00;97165.73;109371;1267;22627;-80
2023/01/22 04:36:57;;;;;;;28.60;19.00;;;;;;;-1.66;100.00;97159.80;109420;1260;22511;-81
2023/01/22 04:39:30;;;;;;;30.00;19.70;;;;;;;-1.66;100.00;97164.92;109366;1263;22524;-81
2023/01/22 04:42:01;;;;;;;29.60;20.30;;;;;;;-1.65;100.00;97161.54;109431;1269;22525;-81
2023/01/22 04:44:31;;;;;;;30.80;20.30;;;;;;;-1.64;100.00;97161.14;109413;1270;22567;-81
2023/01/22 04:47:02;;;;;;;30.00;20.30;;;;;;;-1.64;100.00;97168.89;109262;1270;137077;-81
2023/01/22 04:49:33;;;;;;;28.50;19.10;;;;;;;-1.64;100.00;97168.50;109410;1270;22573;-81
2023/01/22 04:52:04;;;;;;;30.00;20.40;;;;;;;-1.63;100.00;97174.22;109394;1270;22514;-82
2023/01/22 04:54:35;;;;;;;30.00;21.90;;;;;;;-1.63;100.00;97176.45;109334;1270;22527;-81
2023/01/22 04:57:06;;;;;;;29.10;20.10;;;;;;;-1.64;100.00;97178.21;109314;1267;27646;-82
2023/01/22 04:59:37;;;;;;;32.70;22.30;;;;;;;-1.63;100.00;97171.94;109412;1270;22523;-80
2023/01/22 05:02:08;;;;;;;27.90;18.80;;;;;;;-1.63;100.00;97172.02;109267;1271;22515;-81
2023/01/22 05:04:39;;;;;;;33.50;22.40;;;;;;;-1.62;100.00;97176.63;109393;1271;22639;-81
2023/01/22 05:07:10;;;;;;;30.10;20.40;;;;;;;-1.62;100.00;97181.66;109309;1268;22527;-81
2023/01/22 05:09:41;;;;;;;30.20;21.70;;;;;;;-1.64;100.00;97186.38;109310;1264;23284;-81
2023/01/22 05:12:12;;;;;;;32.40;21.40;;;;;;;-1.64;100.00;97191.45;109400;1266;22602;-81
2023/01/22 05:14:43;;;;;;;30.80;21.70;;;;;;;-1.64;100.00;97190.21;109340;1266;22564;-81
2023/01/22 05:17:14;;;;;;;32.10;21.00;;;;;;;-1.64;100.00;97203.41;109299;1270;24199;-81
2023/01/22 05:19:45;;;;;;;31.40;20.70;;;;;;;-1.64;100.00;97209.01;109381;1268;22531;-81
2023/01/22 05:22:16;;;;;;;34.90;21.90;;;;;;;-1.63;100.00;97208.84;109428;1269;23166;-81
2023/01/22 05:24:47;;;;;;;32.00;20.90;;;;;;;-1.62;100.00;97215.62;109357;1260;22743;-81
2023/01/22 05:27:18;;;;;;;31.40;21.30;;;;;;;-1.62;100.00;97223.77;109325;1270;22525;-81
2023/01/22 05:29:49;;;;;;;25.80;17.10;;;;;;;-1.62;100.00;97223.78;109399;1264;22595;-81
2023/01/22 05:32:20;;;;;;;29.00;19.10;;;;;;;-1.63;100.00;97223.93;109311;1269;22528;-81
2023/01/22 05:34:51;;;;;;;28.80;18.20;;;;;;;-1.63;100.00;97223.65;109452;1270;22530;-81
2023/01/22 05:37:22;;;;;;;33.30;22.80;;;;;;;-1.62;100.00;97222.70;109417;1270;23441;-81
2023/01/22 05:39:53;;;;;;;35.60;23.30;;;;;;;-1.62;100.00;97227.38;109433;1264;22533;-81
2023/01/22 05:42:24;;;;;;;29.70;21.00;;;;;;;-1.62;100.00;97227.54;109414;1270;22664;-81
2023/01/22 05:44:55;;;;;;;31.60;20.50;;;;;;;-1.61;100.00;97228.45;109336;1270;22511;-81
2023/01/22 05:47:26;;;;;;;31.00;19.80;;;;;;;-1.60;100.00;97223.55;109406;1270;22636;-81
2023/01/22 05:49:58;;;;;;;33.70;22.50;;;;;;;-1.60;100.00;97218.98;109367;1270;23020;-81
2023/01/22 05:52:28;;;;;;;31.50;21.00;;;;;;;-1.60;100.00;97217.31;109406;1270;22550;-81
2023/01/22 05:55:00;;;;;;;30.90;20.00;;;;;;;-1.61;100.00;97221.15;109336;1270;22578;-81
2023/01/22 05:57:34;;;;;;;36.50;22.30;;;;;;;-1.61;100.00;97223.70;109338;1270;22523;-81
2023/01/22 06:00:07;;;;;;;32.30;21.10;;;;;;;-1.61;100.00;97220.15;109409;1271;22531;-80
2023/01/22 06:02:40;;;;;;;28.80;18.60;;;;;;;-1.60;100.00;97222.77;109403;1263;23017;-80
2023/01/22 06:05:12;;;;;;;29.80;20.70;;;;;;;-1.60;100.00;97221.03;109466;1270;23131;-80
2023/01/22 06:07:42;;;;;;;29.20;18.70;;;;;;;-1.60;100.00;97216.91;109288;1263;22531;-80
2023/01/22 06:10:13;;;;;;;27.50;18.30;;;;;;;-1.61;100.00;97217.35;109437;1270;26598;-80
2023/01/22 06:12:45;;;;;;;25.80;17.30;;;;;;;-1.64;100.00;97222.41;109416;1270;22556;-80
2023/01/22 06:15:16;;;;;;;26.80;17.70;;;;;;;-1.65;100.00;97225.03;109406;1270;22554;-80
2023/01/22 06:17:47;;;;;;;26.30;17.30;;;;;;;-1.68;100.00;97215.77;109407;1270;22541;-80
2023/01/22 06:20:19;;;;;;;27.00;18.10;;;;;;;-1.68;100.00;97213.58;109384;1271;22563;-80
2023/01/22 06:22:53;;;;;;;24.90;17.00;;;;;;;-1.68;100.00;97214.85;109331;1271;22634;-81
2023/01/22 06:25:24;;;;;;;25.20;15.80;;;;;;;-1.69;100.00;97220.79;109345;1268;22535;-81
2023/01/22 06:27:57;;;;;;;25.80;17.70;;;;;;;-1.70;100.00;97224.33;109417;1270;22521;-80
2023/01/22 06:30:30;;;;;;;23.40;15.60;;;;;;;-1.69;100.00;97218.90;109356;1267;24215;-81
2023/01/22 06:33:02;;;;;;;23.30;16.20;;;;;;;-1.70;100.00;97213.65;109444;1264;25454;-80
2023/01/22 06:35:33;;;;;;;23.70;15.30;;;;;;;-1.70;100.00;97216.28;109460;1270;25151;-80
2023/01/22 06:38:04;;;;;;;21.90;15.10;;;;;;;-1.71;100.00;97233.68;109399;1270;24961;-81
2023/01/22 06:40:36;;;;;;;25.20;16.70;;;;;;;-1.73;100.00;97239.14;109303;1272;22525;-80
2023/01/22 06:43:09;;;;;;;23.20;15.60;;;;;;;-1.74;100.00;97239.65;109384;1270;25418;-80
2023/01/22 06:45:41;;;;;;;23.50;15.80;;;;;;;-1.74;100.00;97248.29;109414;1270;22592;-80
2023/01/22 06:48:12;;;;;;;24.80;15.70;;;;;;;-1.74;100.00;97252.96;109443;1270;23906;-80
2023/01/22 06:50:44;;;;;;;22.90;15.30;;;;;;;-1.75;100.00;97256.52;109408;1263;22563;-80
2023/01/22 06:53:18;;;;;;;24.00;15.70;;;;;;;-1.75;100.00;97259.80;109397;1270;23325;-80
2023/01/22 06:55:49;;;;;;;20.50;13.90;;;;;;;-1.76;100.00;97263.19;109440;1263;22541;-80
2023/01/22 06:58:20;;;;;;;22.70;15.40;;;;;;;-1.76;100.00;97265.21;109422;1266;22543;-80
2023/01/22 07:00:51;;;;;;;23.30;14.80;;;;;;;-1.76;100.00;97278.73;109428;1270;22558;-80
2023/01/22 07:03:22;;;;;;;21.80;14.90;;;;;;;-1.76;100.00;97285.13;109314;1271;22520;-80
2023/01/22 07:06:00;;;;;;;22.40;15.00;;;;;;;-1.77;100.00;97281.54;109284;1268;25997;-80
2023/01/22 07:08:33;;;;;;;22.30;14.70;;;;;;;-1.77;100.00;97288.40;109289;1271;22535;-80
2023/01/22 07:11:05;;;;;;;24.90;14.70;;;;;;;-1.76;100.00;97286.14;109327;1270;25265;-80
2023/01/22 07:13:39;;;;;;;27.00;15.20;;;;;;;-1.75;100.00;97288.07;109337;1271;22555;-80
2023/01/22 07:16:12;;;;;;;25.30;16.00;;;;;;;-1.75;100.00;97290.50;109333;1270;23262;-80
2023/01/22 07:18:44;;;;;;;21.30;14.20;;;;;;;-1.74;100.00;97288.95;109451;1270;23347;-80
2023/01/22 07:21:15;;;;;;;23.70;15.00;;;;;;;-1.72;100.00;97286.20;109364;1270;22521;-81
2023/01/22 07:23:47;;;;;;;22.20;14.10;;;;;;;-1.70;100.00;97284.39;109374;1263;22516;-81
2023/01/22 07:26:22;;;;;;;25.20;15.40;;;;;;;-1.69;100.00;97282.16;109423;1268;22542;-81
2023/01/22 07:28:53;;;;;;;22.90;14.50;;;;;;;-1.67;100.00;97285.23;109417;1267;24208;-83
2023/01/22 07:31:24;;;;;;;24.10;16.50;;;;;;;-1.65;100.00;97286.70;109353;1263;22517;-82
2023/01/22 07:33:55;;;;;;;24.80;16.60;;;;;;;-1.63;100.00;97288.39;109486;1264;25408;-82
2023/01/22 07:36:28;;;;;;;30.00;17.70;;;;;;;-1.62;100.00;97296.92;109335;1263;22544;-82
2023/01/22 07:39:02;;;;;;;25.80;16.00;;;;;;;-1.62;100.00;97292.40;109392;1264;22540;-82
2023/01/22 07:41:33;;;;;;;26.80;18.00;;;;;;;-1.62;100.00;97298.05;109468;1264;22569;-82
2023/01/22 07:44:07;;;;;;;29.20;16.30;;;;;;;-1.61;100.00;97298.89;109397;1263;22553;-82
2023/01/22 07:46:39;;;;;;;31.40;18.40;;;;;;;-1.61;100.00;97293.42;109417;1263;22572;-82
2023/01/22 07:49:14;;;;;;;28.80;18.00;;;;;;;-1.60;100.00;97289.41;109334;1270;24377;-82
2023/01/22 07:51:45;;;;;;;31.80;18.20;;;;;;;-1.60;100.00;97293.30;109374;1268;23368;-82
2023/01/22 07:54:18;;;;;;;30.40;18.60;;;;;;;-1.58;100.00;97291.88;109327;1264;22536;-82
2023/01/22 07:56:50;;;;;;;33.40;19.40;;;;;;;-1.55;100.00;97295.35;109297;1264;40303;-82
2023/01/22 07:59:26;;;;;;;40.50;19.10;;;;;;;-1.53;100.00;97291.80;109302;1264;22525;-81
2023/01/22 08:01:59;;;;;;;32.20;18.10;;;;;;;-1.51;100.00;97293.33;109356;1269;22521;-82
2023/01/22 08:04:31;;;;;;;30.00;18.50;;;;;;;-1.51;100.00;97293.48;109372;1259;22543;-82
2023/01/22 08:07:05;;;;;;;28.10;17.60;;;;;;;-1.49;100.00;97289.81;109279;1254;22531;-82
2023/01/22 08:09:37;;;;;;;28.10;16.10;;;;;;;-1.49;100.00;97290.95;109345;1267;22631;-82
2023/01/22 08:12:08;;;;;;;26.10;16.70;;;;;;;-1.48;100.00;97295.07;109335;1268;22540;-82
2023/01/22 08:14:39;;;;;;;25.40;16.10;;;;;;;-1.49;100.00;97301.77;109329;1267;22534;-82
2023/01/22 08:17:11;;;;;;;26.20;16.90;;;;;;;-1.50;100.00;97303.41;109286;1264;22530;-82
2023/01/22 08:19:42;;;;;;;30.20;19.20;;;;;;;-1.49;100.00;97301.42;109355;1264;22583;-82
2023/01/22 08:22:13;;;;;;;33.80;20.50;;;;;;;-1.47;100.00;97301.71;109317;1263;22534;-82
2023/01/22 08:24:45;;;;;;;31.50;19.20;;;;;;;-1.43;100.00;97305.91;109303;1269;22601;-82
2023/01/22 08:27:17;;;;;;;30.70;19.70;;;;;;;-1.38;100.00;97307.50;109321;1267;23335;-82
2023/01/22 08:29:49;;;;;;;31.00;19.80;;;;;;;-1.35;100.00;97308.01;109430;1264;22518;-82
2023/01/22 08:32:21;;;;;;;34.10;18.40;;;;;;;-1.33;100.00;97309.30;109478;1270;22637;-82
2023/01/22 08:34:57;;;;;;;45.70;21.40;;;;;;;-1.31;100.00;97310.59;109465;1264;24202;-81
2023/01/22 08:37:28;;;;;;;29.30;17.10;;;;;;;-1.30;100.00;97316.36;109419;1268;23324;-82
2023/01/22 08:40:00;;;;;;;33.80;17.20;;;;;;;-1.26;100.00;97328.06;109498;1269;22587;-81
2023/01/22 08:42:32;;;;;;;34.60;18.10;;;;;;;-1.25;100.00;97322.35;109436;1270;22540;-82
2023/01/22 08:45:08;;;;;;;32.20;16.70;;;;;;;-1.22;100.00;97321.61;109436;1264;22534;-82
2023/01/22 08:47:39;;;;;;;40.10;19.40;;;;;;;-1.19;100.00;97325.48;109387;1270;22525;-83
2023/01/22 08:50:12;;;;;;;33.70;18.30;;;;;;;-1.19;100.00;97329.67;109374;1270;22525;-81
2023/01/22 08:52:44;;;;;;;33.30;18.00;;;;;;;-1.17;100.00;97334.42;109466;1270;24380;-82
2023/01/22 08:55:16;;;;;;;37.10;19.90;;;;;;;-1.14;100.00;97335.27;109399;1271;24255;-81
2023/01/22 08:57:54;;;;;;;42.00;21.50;;;;;;;-1.13;100.00;97339.17;109407;1268;22719;-81
2023/01/22 09:00:26;;;;;;;45.80;20.90;;;;;;;-1.14;100.00;97342.55;109437;1271;22528;-82
2023/01/22 09:03:00;;;;;;;36.10;18.20;;;;;;;-1.13;100.00;97347.14;109370;1270;22583;-82
2023/01/22 09:05:31;;;;;;;37.40;18.20;;;;;;;-1.12;100.00;97341.67;109437;1269;22524;-82
2023/01/22 09:08:02;;;;;;;38.30;18.50;;;;;;;-1.08;100.00;97341.55;109371;1264;22574;-83
2023/01/22 09:10:34;;;;;;;37.70;19.50;;;;;;;-1.05;100.00;97340.61;109408;1263;22525;-82
2023/01/22 09:13:05;;;;;;;33.70;17.80;;;;;;;-1.02;100.00;97338.52;109308;1270;22532;-82
2023/01/22 09:15:37;;;;;;;30.00;18.70;;;;;;;-1.01;100.00;97336.31;109332;1271;22520;-82
2023/01/22 09:18:08;;;;;;;26.00;15.50;;;;;;;-0.99;100.00;97334.85;109320;1271;22538;-81
2023/01/22 09:20:40;;;;;;;25.70;16.30;;;;;;;-0.97;100.00;97320.72;109505;1264;22525;-81
2023/01/22 09:23:11;;;;;;;28.20;17.90;;;;;;;-0.94;100.00;97317.73;109458;1270;22565;-81
2023/01/22 09:25:42;;;;;;;27.30;17.40;;;;;;;-0.89;100.00;97317.13;109437;1270;22525;-81
2023/01/22 09:28:14;;;;;;;28.40;16.80;;;;;;;-0.82;100.00;97315.27;109414;1266;24238;-81
2023/01/22 09:30:45;;;;;;;28.30;16.60;;;;;;;-0.74;100.00;97309.95;109313;1272;22545;-81
2023/01/22 09:33:20;;;;;;;27.10;18.90;;;;;;;-0.70;100.00;97304.90;109318;1271;22521;-81
2023/01/22 09:35:51;;;;;;;31.30;18.60;;;;;;;-0.70;100.00;97310.20;109307;1270;22548;-81
2023/01/22 09:38:23;;;;;;;31.90;17.40;;;;;;;-0.70;100.00;97324.52;109397;1270;23194;-80
2023/01/22 09:40:58;;;;;;;47.10;20.50;;;;;;;-0.69;100.00;97326.98;109392;1270;25400;-80
2023/01/22 09:43:33;;;;;;;64.00;19.20;;;;;;;-0.67;100.00;97332.80;109460;1270;25379;-80
2023/01/22 09:46:12;;;;;;;36.70;19.30;;;;;;;-0.67;100.00;97328.08;109429;1270;22688;-80
2023/01/22 09:48:48;;;;;;;32.90;17.90;;;;;;;-0.66;100.00;97329.69;109494;1263;25375;-80
2023/01/22 09:51:21;;;;;;;37.60;18.50;;;;;;;-0.66;100.00;97334.45;109356;1270;22643;-81
2023/01/22 09:53:56;;;;;;;38.20;19.50;;;;;;;-0.67;100.00;97335.33;109424;1270;26579;-81
2023/01/22 09:56:40;;;;;;;35.70;18.30;;;;;;;-0.67;100.00;97335.89;109154;1270;25362;-80
2023/01/22 09:59:19;;;;;;;30.80;16.60;;;;;;;-0.69;100.00;97336.56;109402;1270;22518;-80
2023/01/22 10:01:55;;;;;;;37.90;17.90;;;;;;;-0.73;100.00;97339.95;109428;1267;22527;-80
2023/01/22 10:04:34;;;;;;;32.50;17.60;;;;;;;-0.74;100.00;97343.20;109459;1270;22520;-81
2023/01/22 10:07:09;;;;;;;39.90;17.90;;;;;;;-0.77;100.00;97335.36;109434;1270;22595;-80
2023/01/22 10:09:46;;;;;;;36.40;17.80;;;;;;;-0.76;100.00;97329.56;109416;1270;22572;-81
2023/01/22 10:12:18;;;;;;;37.20;17.40;;;;;;;-0.74;100.00;97324.24;109325;1272;22549;-80
2023/01/22 10:14:53;;;;;;;44.20;20.30;;;;;;;-0.73;100.00;97324.70;109286;1270;22540;-80
2023/01/22 10:17:30;;;;;;;32.00;16.70;;;;;;;-0.69;100.00;97327.11;109445;1270;22581;-80
2023/01/22 10:20:05;;;;;;;29.60;17.10;;;;;;;-0.64;100.00;97324.57;109346;1269;22609;-80
2023/01/22 10:22:36;;;;;;;25.50;15.60;;;;;;;-0.58;100.00;97328.45;109425;1269;22535;-80
2023/01/22 10:25:15;;;;;;;26.90;15.20;;;;;;;-0.58;100.00;97330.52;109345;1270;22526;-80
2023/01/22 10:28:00;;;;;;;24.40;14.80;;;;;;;-0.57;100.00;97334.38;109388;1270;35620;-81
2023/01/22 10:30:31;;;;;;;29.20;15.90;;;;;;;-0.55;100.00;97327.68;109462;1270;23755;-80
2023/01/22 10:33:07;;;;;;;25.50;14.70;;;;;;;-0.63;100.00;97331.75;109421;1264;22649;-80
2023/01/22 10:35:46;;;;;;;22.70;14.30;;;;;;;-0.68;100.00;97334.16;109403;1272;22528;-80
2023/01/22 10:38:29;;;;;;;22.50;14.80;;;;;;;-0.72;100.00;97339.99;109383;1270;22553;-81
2023/01/22 10:41:04;;;;;;;30.20;16.40;;;;;;;-0.74;100.00;97338.35;109490;1270;22540;-81
2023/01/22 10:43:40;;;;;;;22.10;14.70;;;;;;;-0.73;100.00;97334.27;109392;1270;22555;-81
2023/01/22 10:46:20;;;;;;;22.10;13.70;;;;;;;-0.72;100.00;97329.98;109305;1270;22673;-81
2023/01/22 10:49:02;;;;;;;21.30;13.80;;;;;;;-0.68;100.00;97331.03;109494;1264;24294;-81
2023/01/22 10:51:41;;;;;;;22.90;14.60;;;;;;;-0.65;100.00;97330.05;109469;1270;25090;-81
2023/01/22 10:54:22;;;;;;;22.20;14.40;;;;;;;-0.61;100.00;97326.86;109298;1271;23002;-81
2023/01/22 10:57:03;;;;;;;23.30;14.90;;;;;;;-0.58;100.00;97336.22;109344;1272;25759;-80
2023/01/22 10:59:35;;;;;;;21.80;14.50;;;;;;;-0.53;100.00;97337.90;109470;1269;22579;-80
2023/01/22 11:02:17;;;;;;;22.90;14.60;;;;;;;-0.48;100.00;97341.18;109365;1264;22573;-79
2023/01/22 11:04:50;;;;;;;23.40;14.80;;;;;;;-0.44;100.00;97333.55;109431;1256;22521;-79
2023/01/22 11:07:26;;;;;;;27.20;15.20;;;;;;;-0.40;100.00;97330.84;109350;1264;22576;-79
2023/01/22 11:10:08;;;;;;;23.30;15.70;;;;;;;-0.36;100.00;97328.20;109364;1268;22522;-78
2023/01/22 11:12:47;;;;;;;20.50;14.30;;;;;;;-0.37;100.00;97328.16;109478;1269;22532;-79
2023/01/22 11:15:26;;;;;;;20.30;13.90;;;;;;;-0.36;100.00;97330.61;109542;1270;22523;-79
2023/01/22 11:18:02;;;;;;;21.90;15.00;;;;;;;-0.32;100.00;97336.39;109458;1266;23262;-79
2023/01/22 11:20:44;;;;;;;24.00;16.00;;;;;;;-0.26;100.00;97336.93;109416;1272;22550;-79
2023/01/22 11:23:36;;;;;;;27.50;15.60;;;;;;;-0.21;100.00;97332.21;109476;1269;22550;-79
2023/01/22 11:26:19;;;;;;;23.70;15.50;;;;;;;-0.22;100.00;97329.33;109469;1264;22553;-79
2023/01/22 11:29:03;;;;;;;23.90;15.90;;;;;;;-0.27;100.00;97325.94;109394;1268;22529;-80
2023/01/22 11:31:50;;;;;;;30.30;16.80;;;;;;;-0.30;100.00;97332.52;109306;1270;22577;-80
2023/01/22 11:34:51;;;;;;;28.00;16.70;;;;;;;-0.27;100.00;97326.30;109388;1272;22538;-80
2023/01/22 11:37:34;;;;;;;25.80;16.00;;;;;;;-0.23;100.00;97322.75;109274;1271;27963;-80